Time;durP1;ratioP1;P1;durP2;ratioP2;P2;SDS_P1;SDS_P2;PMS_P1;PMS_P2;Temp;Humidity;BMP_temperature;BMP_pressure;BME280_temperature;BME280_humidity;BME280_pressure;Samples;Min_cycle;Max_cycle;Signal;HPM_P1;HPM_P2
2021/12/30 00:00:33;;;;;;;3.13;1.50;;;;;;;;;;5123109;28;20195;-66
2021/12/30 00:03:01;;;;;;;1.30;1.30;;;;;;;;;;5122999;28;20199;-66
2021/12/30 00:05:28;;;;;;;2.40;2.00;;;;;;;;;;5122808;28;20232;-66
2021/12/30 00:07:54;;;;;;;2.00;1.90;;;;;;;;;;5123354;28;20210;-66
2021/12/30 00:10:20;;;;;;;2.30;1.75;;;;;;;;;;5122991;28;20195;-66
2021/12/30 00:12:47;;;;;;;1.90;1.70;;;;;;;;;;5123056;28;20250;-66
2021/12/30 00:15:14;;;;;;;1.50;1.45;;;;;;;;;;5122626;28;20194;-66
2021/12/30 00:17:41;;;;;;;1.67;1.20;;;;;;;;;;5123129;28;20195;-66
2021/12/30 00:20:09;;;;;;;1.83;1.63;;;;;;;;;;5122766;28;20240;-66
2021/12/30 00:22:37;;;;;;;1.58;1.48;;;;;;;;;;5122891;28;20191;-66
2021/12/30 00:25:04;;;;;;;1.45;1.40;;;;;;;;;;5123065;28;20195;-66
2021/12/30 00:27:30;;;;;;;1.77;1.38;;;;;;;;;;5122808;28;20534;-66
2021/12/30 00:29:56;;;;;;;1.02;1.02;;;;;;;;;;5122610;28;20195;-66
2021/12/30 00:32:23;;;;;;;1.10;1.10;;;;;;;;;;5122802;28;20412;-66
2021/12/30 00:34:49;;;;;;;1.10;1.10;;;;;;;;;;5122695;28;20228;-66
2021/12/30 00:37:17;;;;;;;1.17;1.02;;;;;;;;;;5122510;28;20195;-66
2021/12/30 00:39:44;;;;;;;3.45;1.15;;;;;;;;;;5122732;28;20525;-66
2021/12/30 00:42:10;;;;;;;1.58;1.45;;;;;;;;;;5122691;28;20202;-66
2021/12/30 00:44:37;;;;;;;1.48;1.38;;;;;;;;;;5124579;28;20286;-66
2021/12/30 00:47:03;;;;;;;1.20;1.20;;;;;;;;;;5126786;28;20398;-66
2021/12/30 00:49:30;;;;;;;6.72;1.50;;;;;;;;;;5126804;28;20194;-66
2021/12/30 00:51:56;;;;;;;1.88;1.77;;;;;;;;;;5126874;28;20210;-66
2021/12/30 00:54:24;;;;;;;1.17;1.08;;;;;;;;;;5126681;28;20219;-66
2021/12/30 00:56:51;;;;;;;1.13;1.13;;;;;;;;;;5126413;28;20195;-66
2021/12/30 00:59:17;;;;;;;2.15;1.10;;;;;;;;;;5126470;28;20199;-66
2021/12/30 01:01:44;;;;;;;1.25;1.25;;;;;;;;;;5126535;28;20202;-66
2021/12/30 01:04:10;;;;;;;0.90;0.90;;;;;;;;;;5126390;28;20191;-66
2021/12/30 01:06:37;;;;;;;1.25;1.23;;;;;;;;;;5126319;28;20499;-66
2021/12/30 01:09:05;;;;;;;1.73;1.08;;;;;;;;;;5126496;28;20371;-66
2021/12/30 01:11:33;;;;;;;1.20;1.20;;;;;;;;;;5126258;28;20201;-66
2021/12/30 01:14:03;;;;;;;1.00;1.00;;;;;;;;;;5126246;28;20218;-66
2021/12/30 01:16:35;;;;;;;3.22;0.90;;;;;;;;;;5126284;28;20251;-66
2021/12/30 01:19:15;;;;;;;5.00;1.00;;;;;;;;;;5126507;28;20250;-66
2021/12/30 01:21:41;;;;;;;0.90;0.90;;;;;;;;;;5126221;28;20287;-66
2021/12/30 01:24:08;;;;;;;1.05;1.00;;;;;;;;;;5126089;28;20381;-66
2021/12/30 01:26:36;;;;;;;1.98;1.00;;;;;;;;;;5125882;28;20195;-66
2021/12/30 01:29:02;;;;;;;1.17;1.08;;;;;;;;;;5125981;28;20202;-66
2021/12/30 01:31:29;;;;;;;0.90;0.90;;;;;;;;;;5126312;28;20391;-66
2021/12/30 01:33:55;;;;;;;1.13;1.00;;;;;;;;;;5125919;28;20226;-66
2021/12/30 01:36:22;;;;;;;1.33;1.20;;;;;;;;;;5125637;28;20195;-66
2021/12/30 01:38:49;;;;;;;0.90;0.90;;;;;;;;;;5125800;28;20207;-66
2021/12/30 01:41:15;;;;;;;1.10;1.08;;;;;;;;;;5126085;28;20203;-66
2021/12/30 01:43:43;;;;;;;0.98;0.80;;;;;;;;;;5125968;28;20191;-66
2021/12/30 01:46:10;;;;;;;0.95;0.90;;;;;;;;;;5125491;28;20214;-66
2021/12/30 01:48:36;;;;;;;3.50;1.10;;;;;;;;;;5125409;28;20195;-66
2021/12/30 01:51:03;;;;;;;0.93;0.93;;;;;;;;;;5125655;28;20203;-66
2021/12/30 01:53:30;;;;;;;0.80;0.80;;;;;;;;;;5125744;28;20246;-66
2021/12/30 01:55:56;;;;;;;4.35;0.90;;;;;;;;;;5125372;28;20202;-66
2021/12/30 01:58:22;;;;;;;1.00;0.93;;;;;;;;;;5125671;28;20446;-66
2021/12/30 02:00:51;;;;;;;2.08;0.70;;;;;;;;;;5125325;28;20194;-66
2021/12/30 02:03:20;;;;;;;1.38;0.90;;;;;;;;;;5125344;28;20195;-66
2021/12/30 02:05:46;;;;;;;0.80;0.80;;;;;;;;;;5124968;28;20195;-66
2021/12/30 02:08:15;;;;;;;3.08;0.90;;;;;;;;;;5125596;28;20195;-66
2021/12/30 02:10:42;;;;;;;0.60;0.60;;;;;;;;;;5125442;28;20201;-66
2021/12/30 02:13:09;;;;;;;0.90;0.90;;;;;;;;;;5125134;28;20215;-66
2021/12/30 02:15:35;;;;;;;1.00;1.00;;;;;;;;;;5124926;28;20203;-66
2021/12/30 02:18:03;;;;;;;0.85;0.80;;;;;;;;;;5124691;28;20495;-66
2021/12/30 02:20:44;;;;;;;0.65;0.65;;;;;;;;;;5125199;28;20529;-66
2021/12/30 02:23:11;;;;;;;3.67;0.85;;;;;;;;;;5125337;28;20469;-66
2021/12/30 02:25:37;;;;;;;0.95;0.65;;;;;;;;;;5125003;28;20195;-66
2021/12/30 02:28:06;;;;;;;2.33;0.90;;;;;;;;;;5124792;28;20194;-66
2021/12/30 02:30:32;;;;;;;0.90;0.90;;;;;;;;;;5124852;28;20195;-66
2021/12/30 02:32:58;;;;;;;2.08;0.80;;;;;;;;;;5124961;28;20211;-66
2021/12/30 02:35:25;;;;;;;7.57;0.80;;;;;;;;;;5124704;28;20195;-66
2021/12/30 02:37:53;;;;;;;2.55;0.70;;;;;;;;;;5124990;28;20195;-66
2021/12/30 02:40:23;;;;;;;3.47;0.80;;;;;;;;;;5124987;28;20522;-66
2021/12/30 02:42:50;;;;;;;2.58;1.00;;;;;;;;;;5124850;28;20282;-66
2021/12/30 02:45:16;;;;;;;0.80;0.80;;;;;;;;;;5124469;28;20215;-66
2021/12/30 02:47:43;;;;;;;1.85;0.90;;;;;;;;;;5124830;28;20240;-66
2021/12/30 02:50:10;;;;;;;0.70;0.70;;;;;;;;;;5124516;28;20203;-66
2021/12/30 02:52:36;;;;;;;1.45;0.93;;;;;;;;;;5124523;28;20195;-66
2021/12/30 02:55:04;;;;;;;0.70;0.70;;;;;;;;;;5124001;28;20219;-66
2021/12/30 02:57:31;;;;;;;0.73;0.73;;;;;;;;;;5124338;28;20203;-66
2021/12/30 02:59:57;;;;;;;0.70;0.70;;;;;;;;;;5124365;28;20203;-66
2021/12/30 03:02:23;;;;;;;0.88;0.77;;;;;;;;;;5124386;28;20491;-66
2021/12/30 03:04:50;;;;;;;0.80;0.80;;;;;;;;;;5123996;28;20198;-66
2021/12/30 03:07:18;;;;;;;0.95;0.77;;;;;;;;;;5123788;28;20201;-66
2021/12/30 03:09:44;;;;;;;1.60;0.98;;;;;;;;;;5123936;28;20195;-66
2021/12/30 03:12:12;;;;;;;0.70;0.70;;;;;;;;;;5124322;28;20388;-66
2021/12/30 03:14:39;;;;;;;1.30;0.70;;;;;;;;;;5123904;28;20554;-66
2021/12/30 03:17:05;;;;;;;1.95;0.65;;;;;;;;;;5123974;28;20202;-66
2021/12/30 03:19:32;;;;;;;1.42;0.55;;;;;;;;;;5124199;28;20284;-66
2021/12/30 03:21:58;;;;;;;0.98;0.70;;;;;;;;;;5123962;28;20196;-66
2021/12/30 03:24:24;;;;;;;0.60;0.60;;;;;;;;;;5123622;28;20198;-66
2021/12/30 03:26:51;;;;;;;0.73;0.70;;;;;;;;;;5123865;28;20203;-66
2021/12/30 03:29:19;;;;;;;1.95;0.80;;;;;;;;;;5123688;28;20195;-66
2021/12/30 03:31:46;;;;;;;0.70;0.70;;;;;;;;;;5123668;28;20195;-66
2021/12/30 03:34:12;;;;;;;0.68;0.68;;;;;;;;;;5123591;28;20211;-66
2021/12/30 03:36:38;;;;;;;1.90;0.85;;;;;;;;;;5123564;28;20194;-66
2021/12/30 03:39:05;;;;;;;2.03;0.73;;;;;;;;;;5123693;28;20202;-66
2021/12/30 03:41:32;;;;;;;1.15;0.70;;;;;;;;;;5123854;28;20195;-66
2021/12/30 03:44:00;;;;;;;0.80;0.80;;;;;;;;;;5123514;28;20203;-66
2021/12/30 03:46:28;;;;;;;2.47;0.70;;;;;;;;;;5123030;28;20215;-66
2021/12/30 03:48:54;;;;;;;0.60;0.60;;;;;;;;;;5123127;28;20195;-66
2021/12/30 03:51:24;;;;;;;0.52;0.52;;;;;;;;;;5123244;28;20195;-66
2021/12/30 03:53:51;;;;;;;3.53;0.85;;;;;;;;;;5123502;28;20238;-66
2021/12/30 03:56:21;;;;;;;1.75;0.60;;;;;;;;;;5123156;28;20210;-66
2021/12/30 03:58:47;;;;;;;0.57;0.57;;;;;;;;;;5123379;28;20203;-66
2021/12/30 04:01:15;;;;;;;3.53;0.80;;;;;;;;;;5123155;28;20195;-66
2021/12/30 04:03:43;;;;;;;1.95;0.70;;;;;;;;;;5123128;28;20191;-66
2021/12/30 04:06:09;;;;;;;0.60;0.60;;;;;;;;;;5123157;28;20194;-66
2021/12/30 04:08:36;;;;;;;3.13;0.70;;;;;;;;;;5123033;28;20195;-66
2021/12/30 04:11:02;;;;;;;5.43;0.90;;;;;;;;;;5122928;28;20195;-66
2021/12/30 04:13:29;;;;;;;3.47;0.77;;;;;;;;;;5122904;28;20199;-66
2021/12/30 04:15:55;;;;;;;1.80;0.70;;;;;;;;;;5122695;28;20195;-66
2021/12/30 04:18:22;;;;;;;1.58;0.82;;;;;;;;;;5122168;28;20199;-66
2021/12/30 04:20:50;;;;;;;1.13;0.90;;;;;;;;;;5123058;28;20203;-66
2021/12/30 04:23:16;;;;;;;0.90;0.82;;;;;;;;;;5123084;28;20358;-66
2021/12/30 04:25:42;;;;;;;0.63;0.57;;;;;;;;;;5122706;28;20494;-66
2021/12/30 04:28:09;;;;;;;0.77;0.77;;;;;;;;;;5122709;28;20195;-66
2021/12/30 04:30:36;;;;;;;21.52;11.55;;;;;;;;;;5122899;28;20203;-66
2021/12/30 04:33:02;;;;;;;3.45;3.17;;;;;;;;;;5122688;28;20240;-66
2021/12/30 04:35:29;;;;;;;1.48;1.10;;;;;;;;;;5122261;28;20219;-66
2021/12/30 04:37:57;;;;;;;1.52;0.77;;;;;;;;;;5122595;28;20198;-66
2021/12/30 04:40:23;;;;;;;1.15;0.80;;;;;;;;;;5122605;28;20201;-66
2021/12/30 04:42:49;;;;;;;0.60;0.52;;;;;;;;;;5122845;28;20195;-66
2021/12/30 04:45:16;;;;;;;2.95;0.80;;;;;;;;;;5122200;28;20211;-66
2021/12/30 04:47:42;;;;;;;0.60;0.60;;;;;;;;;;5122787;28;20195;-66
2021/12/30 04:50:10;;;;;;;2.60;0.40;;;;;;;;;;5122718;28;20487;-66
2021/12/30 04:52:37;;;;;;;2.05;0.63;;;;;;;;;;5122848;28;20379;-66
2021/12/30 04:55:05;;;;;;;0.77;0.57;;;;;;;;;;5122526;28;20219;-66
2021/12/30 04:57:31;;;;;;;0.60;0.60;;;;;;;;;;5122565;28;20202;-66
2021/12/30 04:59:58;;;;;;;0.57;0.52;;;;;;;;;;5122347;28;20498;-66
2021/12/30 05:02:31;;;;;;;0.90;0.60;;;;;;;;;;5122383;28;20202;-66
2021/12/30 05:04:57;;;;;;;1.25;1.25;;;;;;;;;;5122235;28;20236;-66
2021/12/30 05:07:24;;;;;;;1.08;0.90;;;;;;;;;;5122581;28;20519;-66
2021/12/30 05:09:50;;;;;;;2.85;2.60;;;;;;;;;;5122376;28;20195;-66
2021/12/30 05:12:18;;;;;;;3.42;2.42;;;;;;;;;;5122813;28;20504;-66
2021/12/30 05:14:44;;;;;;;2.13;1.95;;;;;;;;;;5121890;28;20211;-66
2021/12/30 05:17:11;;;;;;;1.95;1.83;;;;;;;;;;5122497;28;20195;-66
2021/12/30 05:19:38;;;;;;;1.75;1.42;;;;;;;;;;5122444;28;20195;-66
2021/12/30 05:22:04;;;;;;;2.58;1.63;;;;;;;;;;5122214;28;20203;-66
2021/12/30 05:24:31;;;;;;;1.40;1.30;;;;;;;;;;5121953;28;20206;-66
2021/12/30 05:26:57;;;;;;;1.65;0.98;;;;;;;;;;5122229;28;20400;-66
2021/12/30 05:29:25;;;;;;;1.00;0.95;;;;;;;;;;5122111;28;20203;-66
2021/12/30 05:31:51;;;;;;;1.27;1.00;;;;;;;;;;5126153;28;20187;-66
2021/12/30 05:34:18;;;;;;;0.80;0.80;;;;;;;;;;5125767;28;20211;-66
2021/12/30 05:36:44;;;;;;;0.75;0.70;;;;;;;;;;5125819;28;20195;-66
2021/12/30 05:39:11;;;;;;;1.42;1.00;;;;;;;;;;5125949;28;20202;-66
2021/12/30 05:41:37;;;;;;;2.88;0.90;;;;;;;;;;5125784;28;20202;-66
2021/12/30 05:44:04;;;;;;;2.50;1.27;;;;;;;;;;5125756;28;20199;-66
2021/12/30 05:46:31;;;;;;;2.20;1.10;;;;;;;;;;5125778;28;20223;-66
2021/12/30 05:48:58;;;;;;;2.33;1.17;;;;;;;;;;5126024;28;20205;-66
2021/12/30 05:51:24;;;;;;;1.20;1.10;;;;;;;;;;5125695;28;20518;-66
2021/12/30 05:53:51;;;;;;;1.15;1.15;;;;;;;;;;5125651;28;20195;-66
2021/12/30 05:56:17;;;;;;;4.38;0.90;;;;;;;;;;5125656;28;20494;-66
2021/12/30 05:58:44;;;;;;;1.42;1.33;;;;;;;;;;5125231;28;20203;-66
2021/12/30 06:01:10;;;;;;;1.40;1.40;;;;;;;;;;5125400;28;20202;-66
2021/12/30 06:03:38;;;;;;;0.70;0.70;;;;;;;;;;5125752;28;20394;-66
2021/12/30 06:06:04;;;;;;;1.15;0.68;;;;;;;;;;5125426;28;20195;-66
2021/12/30 06:08:31;;;;;;;1.85;0.77;;;;;;;;;;5125314;28;20195;-66
2021/12/30 06:10:57;;;;;;;1.58;0.90;;;;;;;;;;5125237;28;20203;-66
2021/12/30 06:13:24;;;;;;;2.05;1.08;;;;;;;;;;5125556;28;20535;-66
2021/12/30 06:15:50;;;;;;;4.38;1.30;;;;;;;;;;5124869;28;20219;-66
2021/12/30 06:18:16;;;;;;;2.05;1.90;;;;;;;;;;5125277;28;20394;-66
2021/12/30 06:20:44;;;;;;;7.68;2.05;;;;;;;;;;5125212;28;20195;-66
2021/12/30 06:23:11;;;;;;;4.40;1.83;;;;;;;;;;5124950;28;20370;-66
2021/12/30 06:25:37;;;;;;;6.57;2.83;;;;;;;;;;5124717;28;20191;-66
2021/12/30 06:28:04;;;;;;;2.60;2.40;;;;;;;;;;5125275;28;20195;-66
2021/12/30 06:30:30;;;;;;;6.72;2.25;;;;;;;;;;5125160;28;20195;-66
2021/12/30 06:32:57;;;;;;;1.13;1.13;;;;;;;;;;5125169;28;20195;-66
2021/12/30 06:35:23;;;;;;;2.25;1.40;;;;;;;;;;5124497;28;20211;-66
2021/12/30 06:37:51;;;;;;;1.48;1.38;;;;;;;;;;5124760;28;20266;-66
2021/12/30 06:40:18;;;;;;;2.83;1.40;;;;;;;;;;5124960;28;20203;-66
2021/12/30 06:42:44;;;;;;;1.30;1.20;;;;;;;;;;5123801;28;20204;-66
2021/12/30 06:45:11;;;;;;;1.85;1.45;;;;;;;;;;5124441;28;20218;-66
2021/12/30 06:47:37;;;;;;;4.57;2.08;;;;;;;;;;5124620;28;20526;-66
2021/12/30 06:50:04;;;;;;;6.10;1.90;;;;;;;;;;5124246;28;20202;-66
2021/12/30 06:52:30;;;;;;;3.20;2.22;;;;;;;;;;5124495;28;20195;-66
2021/12/30 06:54:58;;;;;;;11.75;2.25;;;;;;;;;;5124277;28;20523;-66
2021/12/30 06:57:25;;;;;;;4.82;2.03;;;;;;;;;;5124460;28;20202;-66
2021/12/30 06:59:51;;;;;;;2.65;1.40;;;;;;;;;;5124305;28;20203;-67
2021/12/30 07:02:18;;;;;;;3.67;1.65;;;;;;;;;;5124471;28;20499;-67
2021/12/30 07:04:44;;;;;;;2.15;1.77;;;;;;;;;;5124276;28;20511;-67
2021/12/30 07:07:10;;;;;;;8.15;2.60;;;;;;;;;;5124393;28;20203;-67
2021/12/30 07:09:37;;;;;;;5.60;2.83;;;;;;;;;;5124404;28;20495;-67
2021/12/30 07:12:05;;;;;;;8.57;3.75;;;;;;;;;;5124108;28;20195;-66
2021/12/30 07:14:32;;;;;;;9.70;3.17;;;;;;;;;;5123731;28;20215;-66
2021/12/30 07:16:58;;;;;;;9.00;3.55;;;;;;;;;;5124257;28;20195;-67
2021/12/30 07:19:24;;;;;;;4.20;2.58;;;;;;;;;;5123879;28;20195;-67
2021/12/30 07:21:51;;;;;;;3.40;1.55;;;;;;;;;;5124128;28;20202;-67
2021/12/30 07:24:17;;;;;;;1.30;1.20;;;;;;;;;;5124112;28;20262;-67
2021/12/30 07:26:44;;;;;;;3.47;1.80;;;;;;;;;;5123800;28;20195;-66
2021/12/30 07:29:12;;;;;;;3.40;2.00;;;;;;;;;;5123678;28;20202;-66
2021/12/30 07:31:38;;;;;;;5.63;2.55;;;;;;;;;;5123998;28;20495;-67
2021/12/30 07:34:04;;;;;;;5.65;2.90;;;;;;;;;;5123683;28;20201;-67
2021/12/30 07:36:31;;;;;;;7.57;2.80;;;;;;;;;;5123250;28;20195;-67
2021/12/30 07:38:57;;;;;;;7.72;4.45;;;;;;;;;;5123808;28;20195;-66
2021/12/30 07:41:24;;;;;;;9.30;4.30;;;;;;;;;;5123451;28;20202;-66
2021/12/30 07:43:50;;;;;;;9.70;4.05;;;;;;;;;;5123645;28;20195;-67
2021/12/30 07:46:18;;;;;;;7.85;2.90;;;;;;;;;;5123176;28;20219;-67
2021/12/30 07:48:45;;;;;;;8.25;4.30;;;;;;;;;;5123546;28;20386;-67
2021/12/30 07:51:11;;;;;;;5.88;3.00;;;;;;;;;;5123249;28;20202;-67
2021/12/30 07:53:39;;;;;;;2.67;2.13;;;;;;;;;;5123141;28;20195;-67
2021/12/30 07:56:06;;;;;;;5.22;2.80;;;;;;;;;;5123111;28;20252;-67
2021/12/30 07:58:33;;;;;;;2.28;1.23;;;;;;;;;;5123184;28;20420;-67
2021/12/30 08:00:59;;;;;;;4.20;2.05;;;;;;;;;;5123327;28;20194;-67
2021/12/30 08:03:27;;;;;;;2.00;1.60;;;;;;;;;;5123035;28;20195;-67
2021/12/30 08:05:53;;;;;;;0.90;0.90;;;;;;;;;;5123063;28;20195;-67
2021/12/30 08:08:20;;;;;;;3.92;2.20;;;;;;;;;;5123074;28;20195;-67
2021/12/30 08:10:46;;;;;;;0.82;0.70;;;;;;;;;;5123306;28;20195;-67
2021/12/30 08:13:13;;;;;;;4.68;0.90;;;;;;;;;;5123277;28;20320;-67
2021/12/30 08:15:39;;;;;;;0.50;0.50;;;;;;;;;;5122974;28;20444;-67
2021/12/30 08:18:05;;;;;;;0.65;0.65;;;;;;;;;;5122863;28;20533;-66
2021/12/30 08:20:33;;;;;;;0.57;0.57;;;;;;;;;;5122962;28;20210;-67
2021/12/30 08:23:00;;;;;;;0.70;0.70;;;;;;;;;;5123067;28;20195;-67
2021/12/30 08:25:26;;;;;;;1.25;0.57;;;;;;;;;;5122561;28;20198;-67
2021/12/30 08:27:52;;;;;;;0.55;0.55;;;;;;;;;;5123098;28;20202;-56
2021/12/30 08:30:20;;;;;;;0.50;0.50;;;;;;;;;;5123013;28;20496;-56
2021/12/30 08:32:46;;;;;;;0.95;0.75;;;;;;;;;;5122613;28;20194;-56
2021/12/30 08:35:14;;;;;;;0.52;0.52;;;;;;;;;;5113608;28;20216;-56
2021/12/30 08:37:42;;;;;;;0.52;0.52;;;;;;;;;;5112467;28;20206;-56
2021/12/30 08:40:11;;;;;;;0.55;0.55;;;;;;;;;;5113108;28;20196;-57
2021/12/30 08:42:38;;;;;;;0.88;0.70;;;;;;;;;;5110670;28;20214;-56
2021/12/30 08:45:05;;;;;;;0.70;0.70;;;;;;;;;;5104877;28;20220;-57
2021/12/30 08:47:31;;;;;;;0.60;0.60;;;;;;;;;;5102174;28;20203;-57
2021/12/30 08:49:58;;;;;;;0.60;0.60;;;;;;;;;;5102458;28;20184;-57
2021/12/30 08:52:25;;;;;;;1.13;0.90;;;;;;;;;;5102246;28;20196;-57
2021/12/30 08:54:53;;;;;;;0.85;0.82;;;;;;;;;;5102181;28;20238;-55
2021/12/30 08:57:22;;;;;;;1.35;0.95;;;;;;;;;;5102359;28;20203;-56
2021/12/30 08:59:48;;;;;;;0.95;0.95;;;;;;;;;;5101996;28;20211;-57
2021/12/30 09:02:14;;;;;;;0.80;0.80;;;;;;;;;;5102355;28;20203;-56
2021/12/30 09:04:42;;;;;;;3.60;0.90;;;;;;;;;;5102099;28;20204;-57
2021/12/30 09:07:09;;;;;;;3.03;1.48;;;;;;;;;;5106408;28;20229;-56
2021/12/30 09:09:36;;;;;;;5.50;1.55;;;;;;;;;;5106345;28;20195;-56
2021/12/30 09:12:04;;;;;;;9.40;1.88;;;;;;;;;;5106295;28;20195;-56
2021/12/30 09:14:31;;;;;;;4.07;2.38;;;;;;;;;;5105728;28;20195;-53
2021/12/30 09:16:57;;;;;;;3.38;2.03;;;;;;;;;;5111977;28;20211;-54
2021/12/30 09:19:24;;;;;;;2.88;1.88;;;;;;;;;;5125902;28;20191;-54
2021/12/30 09:21:50;;;;;;;1.85;1.15;;;;;;;;;;5125522;28;20537;-54
2021/12/30 09:24:17;;;;;;;2.05;1.80;;;;;;;;;;5125835;28;20194;-54
2021/12/30 09:26:43;;;;;;;1.85;1.17;;;;;;;;;;5125762;28;20211;-54
2021/12/30 09:29:14;;;;;;;2.85;1.17;;;;;;;;;;5126169;28;20194;-58
2021/12/30 09:31:40;;;;;;;6.05;0.95;;;;;;;;;;5126285;28;20212;-57
2021/12/30 09:34:07;;;;;;;1.65;0.90;;;;;;;;;;5125787;28;20195;-59
2021/12/30 09:36:34;;;;;;;7.63;1.10;;;;;;;;;;5125859;28;20211;-59
2021/12/30 09:39:00;;;;;;;1.10;0.68;;;;;;;;;;5126275;28;20191;-59
2021/12/30 09:41:27;;;;;;;0.68;0.60;;;;;;;;;;5125616;28;20202;-57
2021/12/30 09:43:53;;;;;;;0.40;0.40;;;;;;;;;;5126017;28;20196;-57
2021/12/30 09:46:21;;;;;;;0.70;0.70;;;;;;;;;;5125540;28;20387;-59
2021/12/30 09:48:49;;;;;;;1.33;1.23;;;;;;;;;;5125948;28;20262;-59
2021/12/30 09:51:15;;;;;;;0.73;0.73;;;;;;;;;;5126065;28;20211;-58
2021/12/30 09:53:42;;;;;;;0.60;0.50;;;;;;;;;;5125478;28;20195;-60
2021/12/30 09:56:08;;;;;;;0.20;0.20;;;;;;;;;;5125316;28;20215;-59
2021/12/30 09:58:34;;;;;;;3.50;0.57;;;;;;;;;;5125454;28;20268;-58
2021/12/30 10:01:02;;;;;;;0.57;0.50;;;;;;;;;;5125382;28;20195;-59
2021/12/30 10:03:30;;;;;;;0.68;0.57;;;;;;;;;;5125533;28;20195;-57
2021/12/30 10:06:05;;;;;;;0.30;0.30;;;;;;;;;;5125225;28;20214;-57
2021/12/30 10:08:36;;;;;;;1.38;0.30;;;;;;;;;;5125273;28;20203;-57
2021/12/30 10:11:05;;;;;;;0.65;0.30;;;;;;;;;;5125814;28;20665;-59
2021/12/30 10:13:33;;;;;;;14.40;6.32;;;;;;;;;;5125154;28;20195;-57
2021/12/30 10:16:00;;;;;;;2.40;0.30;;;;;;;;;;5124202;28;20222;-57
2021/12/30 10:18:41;;;;;;;0.47;0.47;;;;;;;;;;5124436;28;20203;-58
2021/12/30 10:21:12;;;;;;;0.50;0.50;;;;;;;;;;5125406;28;20270;-57
2021/12/30 10:23:42;;;;;;;0.50;0.50;;;;;;;;;;5125225;28;20230;-60
2021/12/30 10:26:09;;;;;;;0.20;0.20;;;;;;;;;;5124825;28;20179;-57
2021/12/30 10:28:37;;;;;;;2.17;0.70;;;;;;;;;;5124839;28;20195;-59
2021/12/30 10:31:15;;;;;;;0.75;0.75;;;;;;;;;;5125166;28;20202;-58
2021/12/30 10:33:46;;;;;;;0.43;0.43;;;;;;;;;;5124985;28;20201;-59
2021/12/30 10:36:15;;;;;;;1.15;0.50;;;;;;;;;;5124447;28;20207;-57
2021/12/30 10:38:42;;;;;;;0.68;0.50;;;;;;;;;;5124696;28;20195;-59
2021/12/30 10:41:08;;;;;;;0.30;0.30;;;;;;;;;;5125138;28;20196;-58
2021/12/30 10:43:45;;;;;;;3.22;0.70;;;;;;;;;;5124787;28;20383;-60
2021/12/30 10:46:16;;;;;;;3.83;0.93;;;;;;;;;;5124521;28;20496;-59
2021/12/30 10:48:47;;;;;;;1.98;0.73;;;;;;;;;;5124544;28;20202;-59
2021/12/30 10:51:15;;;;;;;0.82;0.30;;;;;;;;;;5124639;28;20202;-60
2021/12/30 10:53:43;;;;;;;0.20;0.20;;;;;;;;;;5124628;28;20195;-56
2021/12/30 10:56:33;;;;;;;1.83;0.55;;;;;;;;;;5123931;28;20215;-57
2021/12/30 10:59:10;;;;;;;0.50;0.50;;;;;;;;;;5103664;28;20274;-59
2021/12/30 11:01:40;;;;;;;0.90;0.50;;;;;;;;;;5124227;28;20194;-59
2021/12/30 11:04:07;;;;;;;0.75;0.45;;;;;;;;;;5124361;28;20388;-59
2021/12/30 11:06:33;;;;;;;0.95;0.28;;;;;;;;;;5124115;28;20198;-57
2021/12/30 11:09:06;;;;;;;0.40;0.40;;;;;;;;;;5123964;28;20195;-59
2021/12/30 11:11:33;;;;;;;0.60;0.40;;;;;;;;;;5124021;28;20202;-59
2021/12/30 11:14:00;;;;;;;0.40;0.40;;;;;;;;;;5123951;28;20195;-57
2021/12/30 11:16:27;;;;;;;0.30;0.30;;;;;;;;;;5123656;28;20218;-58
2021/12/30 11:18:55;;;;;;;0.35;0.30;;;;;;;;;;5124057;28;20506;-60
2021/12/30 11:21:38;;;;;;;0.28;0.28;;;;;;;;;;5124044;28;20202;-57
2021/12/30 11:24:07;;;;;;;0.60;0.40;;;;;;;;;;5123900;28;20395;-59
2021/12/30 11:26:33;;;;;;;0.50;0.50;;;;;;;;;;5123567;28;20197;-57
2021/12/30 11:29:00;;;;;;;0.93;0.50;;;;;;;;;;5123102;28;20195;-60
2021/12/30 11:31:27;;;;;;;0.52;0.43;;;;;;;;;;5123798;28;20202;-57
2021/12/30 11:33:53;;;;;;;1.25;0.60;;;;;;;;;;5123529;28;20391;-57
2021/12/30 11:36:19;;;;;;;2.53;1.13;;;;;;;;;;5123465;28;20218;-58
2021/12/30 11:38:46;;;;;;;0.40;0.40;;;;;;;;;;5123668;28;20391;-60
2021/12/30 11:41:18;;;;;;;0.40;0.40;;;;;;;;;;5123706;28;20487;-56
2021/12/30 11:43:45;;;;;;;0.50;0.50;;;;;;;;;;5123442;28;20195;-58
2021/12/30 11:46:26;;;;;;;0.35;0.35;;;;;;;;;;5123061;28;20383;-56
2021/12/30 11:48:54;;;;;;;0.30;0.30;;;;;;;;;;5123133;28;20202;-57
2021/12/30 11:51:23;;;;;;;0.45;0.45;;;;;;;;;;5123441;28;20195;-58
2021/12/30 11:53:50;;;;;;;0.40;0.40;;;;;;;;;;5123473;28;20199;-58
2021/12/30 11:56:22;;;;;;;0.43;0.43;;;;;;;;;;5122866;28;20207;-59
2021/12/30 11:58:49;;;;;;;0.95;0.40;;;;;;;;;;5122933;28;20211;-57
2021/12/30 12:01:30;;;;;;;0.80;0.80;;;;;;;;;;5122846;28;20203;-57
2021/12/30 12:03:57;;;;;;;0.52;0.52;;;;;;;;;;5123215;28;20499;-56
2021/12/30 12:06:32;;;;;;;0.75;0.75;;;;;;;;;;5122835;28;20514;-58
2021/12/30 12:08:59;;;;;;;0.30;0.30;;;;;;;;;;5122963;28;20195;-58
2021/12/30 12:11:28;;;;;;;0.40;0.40;;;;;;;;;;5122825;28;20194;-59
2021/12/30 12:13:56;;;;;;;0.40;0.30;;;;;;;;;;5123050;28;20502;-59
2021/12/30 12:16:37;;;;;;;0.20;0.20;;;;;;;;;;5122763;28;20467;-59
2021/12/30 12:19:05;;;;;;;0.50;0.50;;;;;;;;;;5122658;28;20186;-58
2021/12/30 12:21:39;;;;;;;1.10;0.40;;;;;;;;;;5122786;28;20195;-58
2021/12/30 12:24:20;;;;;;;0.43;0.35;;;;;;;;;;5122737;28;20201;-57
2021/12/30 12:26:48;;;;;;;0.43;0.40;;;;;;;;;;5122454;28;20191;-59
2021/12/30 12:29:24;;;;;;;1.60;0.35;;;;;;;;;;5122975;28;20195;-59
2021/12/30 12:31:54;;;;;;;1.48;0.40;;;;;;;;;;5122686;28;20202;-58
2021/12/30 12:34:32;;;;;;;0.60;0.60;;;;;;;;;;5122745;28;20217;-59
2021/12/30 12:36:59;;;;;;;0.80;0.47;;;;;;;;;;5122778;28;20398;-59
2021/12/30 12:39:35;;;;;;;0.30;0.30;;;;;;;;;;5121978;28;20336;-58
2021/12/30 12:42:04;;;;;;;1.70;0.60;;;;;;;;;;5122404;28;20189;-59
2021/12/30 12:44:30;;;;;;;0.50;0.30;;;;;;;;;;5122248;28;20211;-59
2021/12/30 12:46:59;;;;;;;0.70;0.70;;;;;;;;;;5122565;28;20455;-58
2021/12/30 12:49:41;;;;;;;0.30;0.30;;;;;;;;;;5122658;28;20222;-56
2021/12/30 12:52:07;;;;;;;1.27;0.30;;;;;;;;;;5122513;28;20400;-58
2021/12/30 12:54:35;;;;;;;0.22;0.22;;;;;;;;;;5122123;28;20195;-58
2021/12/30 12:57:10;;;;;;;0.38;0.38;;;;;;;;;;5122328;28;20218;-58
2021/12/30 12:59:37;;;;;;;0.35;0.20;;;;;;;;;;5122424;28;20404;-57
2021/12/30 13:02:06;;;;;;;0.10;0.10;;;;;;;;;;5122599;28;20237;-58
2021/12/30 13:04:32;;;;;;;0.28;0.28;;;;;;;;;;5122041;28;20203;-58
2021/12/30 13:06:59;;;;;;;0.30;0.30;;;;;;;;;;5122350;28;20371;-58
2021/12/30 13:09:26;;;;;;;0.45;0.40;;;;;;;;;;5122561;28;20195;-58
2021/12/30 13:11:54;;;;;;;0.43;0.43;;;;;;;;;;5122396;28;20211;-58
2021/12/30 13:14:23;;;;;;;0.20;0.20;;;;;;;;;;5122224;28;20495;-58
2021/12/30 13:16:53;;;;;;;0.30;0.30;;;;;;;;;;5121969;28;20215;-60
2021/12/30 13:19:20;;;;;;;0.40;0.20;;;;;;;;;;5122451;28;20517;-59
2021/12/30 13:21:51;;;;;;;1.25;0.50;;;;;;;;;;5122137;28;20202;-56
2021/12/30 13:24:35;;;;;;;0.38;0.38;;;;;;;;;;5122116;28;20184;-59
2021/12/30 13:27:03;;;;;;;0.82;0.80;;;;;;;;;;5122021;28;20191;-59
2021/12/30 13:29:32;;;;;;;0.40;0.32;;;;;;;;;;5122541;28;20386;-58
2021/12/30 13:31:59;;;;;;;0.70;0.70;;;;;;;;;;5122398;28;20191;-59
2021/12/30 13:34:26;;;;;;;0.40;0.40;;;;;;;;;;5122498;28;20195;-58
2021/12/30 13:36:55;;;;;;;1.63;0.60;;;;;;;;;;5122119;28;20211;-58
2021/12/30 13:39:21;;;;;;;0.50;0.50;;;;;;;;;;5122162;28;20195;-58
2021/12/30 13:41:51;;;;;;;2.92;2.50;;;;;;;;;;5122168;28;20248;-59
2021/12/30 13:44:18;;;;;;;0.30;0.30;;;;;;;;;;5121889;28;20195;-59
2021/12/30 13:46:46;;;;;;;0.47;0.47;;;;;;;;;;5121718;28;20267;-58
2021/12/30 13:49:13;;;;;;;0.40;0.40;;;;;;;;;;5122084;28;20514;-58
2021/12/30 13:51:39;;;;;;;0.30;0.30;;;;;;;;;;5123910;28;20531;-58
2021/12/30 13:54:07;;;;;;;1.75;0.40;;;;;;;;;;5125704;28;20503;-57
2021/12/30 13:56:34;;;;;;;0.75;0.70;;;;;;;;;;5125254;28;20531;-58
2021/12/30 13:59:03;;;;;;;7.75;1.85;;;;;;;;;;5125460;28;20210;-59
2021/12/30 14:01:32;;;;;;;0.50;0.50;;;;;;;;;;5125366;28;20199;-59
2021/12/30 14:04:05;;;;;;;1.45;1.23;;;;;;;;;;5125436;28;20522;-59
2021/12/30 14:06:31;;;;;;;0.50;0.50;;;;;;;;;;5125267;28;20399;-58
2021/12/30 14:08:59;;;;;;;0.75;0.40;;;;;;;;;;5125623;28;20379;-59
2021/12/30 14:11:29;;;;;;;0.65;0.40;;;;;;;;;;5125125;28;20195;-59
2021/12/30 14:13:55;;;;;;;0.35;0.35;;;;;;;;;;5125286;28;20195;-58
2021/12/30 14:16:23;;;;;;;0.30;0.30;;;;;;;;;;5124928;28;20210;-55
2021/12/30 14:18:52;;;;;;;0.82;0.60;;;;;;;;;;5125056;28;20195;-57
2021/12/30 14:21:20;;;;;;;2.15;0.57;;;;;;;;;;5124878;28;20195;-59
2021/12/30 14:23:49;;;;;;;1.92;0.70;;;;;;;;;;5125195;28;20195;-59
2021/12/30 14:26:20;;;;;;;0.30;0.30;;;;;;;;;;5125060;28;20195;-58
2021/12/30 14:28:51;;;;;;;0.40;0.40;;;;;;;;;;5124916;28;20526;-58
2021/12/30 14:31:18;;;;;;;1.45;0.68;;;;;;;;;;5125311;28;20202;-59
2021/12/30 14:33:45;;;;;;;0.50;0.50;;;;;;;;;;5124740;28;20201;-59
2021/12/30 14:36:12;;;;;;;1.33;0.40;;;;;;;;;;5124943;28;20195;-59
2021/12/30 14:38:40;;;;;;;0.45;0.45;;;;;;;;;;5124499;28;20210;-59
2021/12/30 14:41:08;;;;;;;2.65;0.32;;;;;;;;;;5124652;28;20220;-58
2021/12/30 14:43:34;;;;;;;0.40;0.40;;;;;;;;;;5124436;28;20202;-59
2021/12/30 14:46:11;;;;;;;0.20;0.20;;;;;;;;;;5124552;28;20211;-59